sensor_id;sensor_type;location;lat;lon;timestamp;pressure;altitude;pressure_sealevel;temperature;humidity
36260;BME280;22296;50.824;5.644;2023-02-28T00:00:32;102008.63;;;10.52;57.73
36260;BME280;22296;50.824;5.644;2023-02-28T00:02:59;102000.59;;;10.51;57.75
36260;BME280;22296;50.824;5.644;2023-02-28T00:05:27;102000.88;;;10.49;57.64
36260;BME280;22296;50.824;5.644;2023-02-28T00:07:55;102003.63;;;10.49;57.34
36260;BME280;22296;50.824;5.644;2023-02-28T00:10:25;102007.47;;;10.48;57.55
36260;BME280;22296;50.824;5.644;2023-02-28T00:12:54;102007.47;;;10.48;57.57
36260;BME280;22296;50.824;5.644;2023-02-28T00:15:23;101996.97;;;10.45;57.56
36260;BME280;22296;50.824;5.644;2023-02-28T00:17:51;101998.84;;;10.40;57.97
36260;BME280;22296;50.824;5.644;2023-02-28T00:20:18;101999.16;;;10.43;57.48
36260;BME280;22296;50.824;5.644;2023-02-28T00:22:47;101999.34;;;10.37;57.73
36260;BME280;22296;50.824;5.644;2023-02-28T00:25:15;102000.19;;;10.37;57.87
36260;BME280;22296;50.824;5.644;2023-02-28T00:27:43;102005.16;;;10.35;57.70
36260;BME280;22296;50.824;5.644;2023-02-28T00:30:14;102006.50;;;10.33;57.74
36260;BME280;22296;50.824;5.644;2023-02-28T00:32:41;102002.06;;;10.32;57.76
36260;BME280;22296;50.824;5.644;2023-02-28T00:35:10;102003.44;;;10.29;57.89
36260;BME280;22296;50.824;5.644;2023-02-28T00:37:37;102006.44;;;10.27;57.75
36260;BME280;22296;50.824;5.644;2023-02-28T00:40:05;102011.66;;;10.24;57.95
36260;BME280;22296;50.824;5.644;2023-02-28T00:42:34;102006.38;;;10.22;58.11
36260;BME280;22296;50.824;5.644;2023-02-28T00:45:02;102005.81;;;10.20;58.19
36260;BME280;22296;50.824;5.644;2023-02-28T00:47:31;102009.16;;;10.22;57.99
36260;BME280;22296;50.824;5.644;2023-02-28T00:49:59;102011.00;;;10.17;58.16
36260;BME280;22296;50.824;5.644;2023-02-28T00:52:27;102016.53;;;10.17;58.21
36260;BME280;22296;50.824;5.644;2023-02-28T00:54:54;102011.28;;;10.15;58.24
36260;BME280;22296;50.824;5.644;2023-02-28T00:57:21;102023.13;;;10.16;58.16
36260;BME280;22296;50.824;5.644;2023-02-28T00:59:48;102016.22;;;10.13;58.17
36260;BME280;22296;50.824;5.644;2023-02-28T01:02:14;102012.03;;;10.11;58.32
36260;BME280;22296;50.824;5.644;2023-02-28T01:04:41;102022.22;;;10.10;58.46
36260;BME280;22296;50.824;5.644;2023-02-28T01:07:08;102015.88;;;10.10;58.38
36260;BME280;22296;50.824;5.644;2023-02-28T01:09:35;102014.72;;;10.06;58.22
36260;BME280;22296;50.824;5.644;2023-02-28T01:12:02;102013.88;;;10.05;58.54
36260;BME280;22296;50.824;5.644;2023-02-28T01:14:28;102018.00;;;10.03;58.53
36260;BME280;22296;50.824;5.644;2023-02-28T01:16:56;102018.28;;;10.01;58.80
36260;BME280;22296;50.824;5.644;2023-02-28T01:19:24;102017.44;;;10.01;58.50
36260;BME280;22296;50.824;5.644;2023-02-28T01:21:51;102011.09;;;10.00;58.62
36260;BME280;22296;50.824;5.644;2023-02-28T01:24:18;102016.28;;;9.97;58.88
36260;BME280;22296;50.824;5.644;2023-02-28T01:26:44;102016.28;;;9.97;58.86
36260;BME280;22296;50.824;5.644;2023-02-28T01:29:11;102017.38;;;9.96;58.62
36260;BME280;22296;50.824;5.644;2023-02-28T01:31:38;102016.78;;;9.94;58.88
36260;BME280;22296;50.824;5.644;2023-02-28T01:34:07;102017.06;;;9.92;58.80
36260;BME280;22296;50.824;5.644;2023-02-28T01:36:34;102010.16;;;9.90;58.90
36260;BME280;22296;50.824;5.644;2023-02-28T01:39:00;102010.16;;;9.90;58.86
36260;BME280;22296;50.824;5.644;2023-02-28T01:41:30;102013.41;;;9.87;58.86
36260;BME280;22296;50.824;5.644;2023-02-28T01:44:05;102013.41;;;9.87;58.92
36260;BME280;22296;50.824;5.644;2023-02-28T01:46:34;102010.06;;;9.85;59.13
36260;BME280;22296;50.824;5.644;2023-02-28T01:49:13;102007.31;;;9.85;58.90
36260;BME280;22296;50.824;5.644;2023-02-28T01:51:46;102008.41;;;9.84;59.11
36260;BME280;22296;50.824;5.644;2023-02-28T01:54:23;102011.69;;;9.81;58.96
36260;BME280;22296;50.824;5.644;2023-02-28T01:56:58;102011.19;;;9.84;59.04
36260;BME280;22296;50.824;5.644;2023-02-28T01:59:37;102002.31;;;9.82;58.99
36260;BME280;22296;50.824;5.644;2023-02-28T02:02:07;102008.94;;;9.81;59.17
36260;BME280;22296;50.824;5.644;2023-02-28T02:04:59;102002.81;;;9.79;59.19
36260;BME280;22296;50.824;5.644;2023-02-28T02:07:31;102003.38;;;9.76;58.98
36260;BME280;22296;50.824;5.644;2023-02-28T02:10:20;101997.25;;;9.73;59.06
36260;BME280;22296;50.824;5.644;2023-02-28T02:15:35;102004.41;;;9.69;59.25
36260;BME280;22296;50.824;5.644;2023-02-28T02:21:45;101995.03;;;9.70;59.25
36260;BME280;22296;50.824;5.644;2023-02-28T02:30:08;101992.72;;;9.62;59.43
36260;BME280;22296;50.824;5.644;2023-02-28T02:32:54;101980.88;;;9.62;59.57
36260;BME280;22296;50.824;5.644;2023-02-28T02:46:39;101989.34;;;9.55;59.48
36260;BME280;22296;50.824;5.644;2023-02-28T02:49:13;101987.91;;;9.53;59.84
36260;BME280;22296;50.824;5.644;2023-02-28T02:51:42;101987.09;;;9.52;59.80
36260;BME280;22296;50.824;5.644;2023-02-28T02:54:17;101985.44;;;9.51;59.66
36260;BME280;22296;50.824;5.644;2023-02-28T02:56:47;101989.25;;;9.50;59.88
36260;BME280;22296;50.824;5.644;2023-02-28T02:59:18;101978.25;;;9.50;59.83
36260;BME280;22296;50.824;5.644;2023-02-28T03:02:00;101979.88;;;9.46;59.88
36260;BME280;22296;50.824;5.644;2023-02-28T03:04:32;101980.94;;;9.45;59.82
36260;BME280;22296;50.824;5.644;2023-02-28T03:06:59;101984.78;;;9.44;59.69
36260;BME280;22296;50.824;5.644;2023-02-28T03:09:27;101985.94;;;9.48;59.62
36260;BME280;22296;50.824;5.644;2023-02-28T03:11:55;101981.78;;;9.46;59.85
36260;BME280;22296;50.824;5.644;2023-02-28T03:25:14;101983.31;;;9.37;60.04
36260;BME280;22296;50.824;5.644;2023-02-28T03:30:55;101970.31;;;9.32;60.03
36260;BME280;22296;50.824;5.644;2023-02-28T03:33:36;101971.41;;;9.31;59.97
36260;BME280;22296;50.824;5.644;2023-02-28T03:36:10;101967.56;;;9.32;59.80
36260;BME280;22296;50.824;5.644;2023-02-28T03:41:34;101980.16;;;9.28;60.22
36260;BME280;22296;50.824;5.644;2023-02-28T03:44:24;101981.25;;;9.27;60.12
36260;BME280;22296;50.824;5.644;2023-02-28T03:47:05;101987.84;;;9.26;60.37
36260;BME280;22296;50.824;5.644;2023-02-28T03:49:44;101990.84;;;9.25;60.41
36260;BME280;22296;50.824;5.644;2023-02-28T03:52:14;101986.19;;;9.25;60.42
36260;BME280;22296;50.824;5.644;2023-02-28T03:54:44;101990.28;;;9.23;60.08
36260;BME280;22296;50.824;5.644;2023-02-28T03:57:33;101986.69;;;9.22;60.55
36260;BME280;22296;50.824;5.644;2023-02-28T04:02:39;101994.38;;;9.20;60.40
36260;BME280;22296;50.824;5.644;2023-02-28T04:05:06;101992.19;;;9.22;60.40
36260;BME280;22296;50.824;5.644;2023-02-28T04:07:33;101995.22;;;9.21;60.38
36260;BME280;22296;50.824;5.644;2023-02-28T04:10:00;101993.53;;;9.20;60.47
36260;BME280;22296;50.824;5.644;2023-02-28T04:12:27;101998.19;;;9.19;60.34
36260;BME280;22296;50.824;5.644;2023-02-28T04:14:54;102000.94;;;9.19;60.44
36260;BME280;22296;50.824;5.644;2023-02-28T04:17:21;101999.31;;;9.18;60.28
36260;BME280;22296;50.824;5.644;2023-02-28T04:19:48;101992.97;;;9.18;60.39
36260;BME280;22296;50.824;5.644;2023-02-28T04:22:16;101993.53;;;9.20;60.09
36260;BME280;22296;50.824;5.644;2023-02-28T04:24:44;101997.63;;;9.17;60.48
36260;BME280;22296;50.824;5.644;2023-02-28T04:27:11;101999.81;;;9.15;60.45
36260;BME280;22296;50.824;5.644;2023-02-28T04:29:38;101998.69;;;9.16;60.51
36260;BME280;22296;50.824;5.644;2023-02-28T04:32:05;101996.22;;;9.14;60.30
36260;BME280;22296;50.824;5.644;2023-02-28T04:34:32;101999.19;;;9.13;60.57
36260;BME280;22296;50.824;5.644;2023-02-28T04:36:59;101989.88;;;9.14;60.43
36260;BME280;22296;50.824;5.644;2023-02-28T04:39:43;101999.19;;;9.13;60.54
36260;BME280;22296;50.824;5.644;2023-02-28T04:42:11;101993.13;;;9.11;60.43
36260;BME280;22296;50.824;5.644;2023-02-28T04:44:38;101999.72;;;9.10;60.57
36260;BME280;22296;50.824;5.644;2023-02-28T04:47:05;101998.06;;;9.09;60.58
36260;BME280;22296;50.824;5.644;2023-02-28T04:49:31;101998.06;;;9.09;60.84
36260;BME280;22296;50.824;5.644;2023-02-28T04:51:58;102001.88;;;9.08;60.47
36260;BME280;22296;50.824;5.644;2023-02-28T04:54:25;102005.72;;;9.07;60.60
36260;BME280;22296;50.824;5.644;2023-02-28T04:56:52;101997.22;;;9.08;60.53
36260;BME280;22296;50.824;5.644;2023-02-28T04:59:19;101993.41;;;9.09;60.64
36260;BME280;22296;50.824;5.644;2023-02-28T05:01:47;101998.00;;;9.04;60.53
36260;BME280;22296;50.824;5.644;2023-02-28T05:04:14;101992.50;;;9.04;60.71
36260;BME280;22296;50.824;5.644;2023-02-28T05:06:42;101995.25;;;9.04;60.60
36260;BME280;22296;50.824;5.644;2023-02-28T05:09:09;101991.88;;;9.02;60.76
36260;BME280;22296;50.824;5.644;2023-02-28T05:11:38;101994.06;;;9.00;60.95
36260;BME280;22296;50.824;5.644;2023-02-28T05:14:10;102006.16;;;8.99;61.04
36260;BME280;22296;50.824;5.644;2023-02-28T05:16:37;102005.66;;;9.02;60.75
36260;BME280;22296;50.824;5.644;2023-02-28T05:19:04;102010.59;;;9.00;60.64
36260;BME280;22296;50.824;5.644;2023-02-28T05:21:41;102007.25;;;8.98;60.85
36260;BME280;22296;50.824;5.644;2023-02-28T05:24:14;102007.50;;;8.96;61.08
36260;BME280;22296;50.824;5.644;2023-02-28T05:26:42;102010.75;;;8.93;60.84
36260;BME280;22296;50.824;5.644;2023-02-28T05:29:09;101999.50;;;8.95;60.83
36260;BME280;22296;50.824;5.644;2023-02-28T05:31:36;102006.41;;;8.97;60.81
36260;BME280;22296;50.824;5.644;2023-02-28T05:34:03;102003.91;;;8.96;60.80
36260;BME280;22296;50.824;5.644;2023-02-28T05:36:33;102002.75;;;8.92;60.56
36260;BME280;22296;50.824;5.644;2023-02-28T05:39:00;101997.25;;;8.92;60.66
36260;BME280;22296;50.824;5.644;2023-02-28T05:41:26;102001.34;;;8.89;60.69
36260;BME280;22296;50.824;5.644;2023-02-28T05:43:54;102001.06;;;8.91;60.76
36260;BME280;22296;50.824;5.644;2023-02-28T05:46:21;101993.31;;;8.88;60.93
36260;BME280;22296;50.824;5.644;2023-02-28T05:48:48;102007.09;;;8.88;60.99
36260;BME280;22296;50.824;5.644;2023-02-28T05:51:15;102005.41;;;8.87;60.99
36260;BME280;22296;50.824;5.644;2023-02-28T05:53:43;102004.34;;;8.88;60.67
36260;BME280;22296;50.824;5.644;2023-02-28T05:56:09;102006.75;;;8.84;60.71
36260;BME280;22296;50.824;5.644;2023-02-28T05:58:36;102008.69;;;8.84;60.82
36260;BME280;22296;50.824;5.644;2023-02-28T06:01:43;102011.44;;;8.84;60.96
36260;BME280;22296;50.824;5.644;2023-02-28T06:04:11;102008.94;;;8.82;60.74
36260;BME280;22296;50.824;5.644;2023-02-28T06:06:56;102011.66;;;8.82;60.76
36260;BME280;22296;50.824;5.644;2023-02-28T06:09:24;102011.94;;;8.81;60.99
36260;BME280;22296;50.824;5.644;2023-02-28T06:11:51;102005.25;;;8.77;61.02
36260;BME280;22296;50.824;5.644;2023-02-28T06:14:19;102008.00;;;8.77;61.12
36260;BME280;22296;50.824;5.644;2023-02-28T06:16:47;102010.41;;;8.90;60.60
36260;BME280;22296;50.824;5.644;2023-02-28T06:19:14;102013.09;;;8.85;61.20
36260;BME280;22296;50.824;5.644;2023-02-28T06:21:41;102014.69;;;8.81;61.20
36260;BME280;22296;50.824;5.644;2023-02-28T06:24:09;102014.59;;;8.76;61.10
36260;BME280;22296;50.824;5.644;2023-02-28T06:26:36;102019.50;;;8.74;61.01
36260;BME280;22296;50.824;5.644;2023-02-28T06:29:02;102016.75;;;8.74;61.13
36260;BME280;22296;50.824;5.644;2023-02-28T06:31:29;102021.91;;;8.70;61.27
36260;BME280;22296;50.824;5.644;2023-02-28T06:33:56;102032.69;;;8.72;60.87
36260;BME280;22296;50.824;5.644;2023-02-28T06:36:23;102025.78;;;8.69;61.24
36260;BME280;22296;50.824;5.644;2023-02-28T06:38:50;102028.75;;;8.68;61.10
36260;BME280;22296;50.824;5.644;2023-02-28T06:41:26;102028.75;;;8.68;60.89
36260;BME280;22296;50.824;5.644;2023-02-28T06:43:54;102025.44;;;8.66;61.21
36260;BME280;22296;50.824;5.644;2023-02-28T06:46:20;102030.94;;;8.66;60.90
36260;BME280;22296;50.824;5.644;2023-02-28T06:49:00;102032.59;;;8.67;60.92
36260;BME280;22296;50.824;5.644;2023-02-28T06:51:27;102039.41;;;8.64;61.04
36260;BME280;22296;50.824;5.644;2023-02-28T06:53:54;102052.34;;;8.64;61.05
36260;BME280;22296;50.824;5.644;2023-02-28T06:56:21;102054.25;;;8.63;60.89
36260;BME280;22296;50.824;5.644;2023-02-28T06:58:49;102053.44;;;8.63;61.05
36260;BME280;22296;50.824;5.644;2023-02-28T07:01:16;102060.75;;;8.57;60.69
36260;BME280;22296;50.824;5.644;2023-02-28T07:03:43;102059.41;;;8.59;60.96
36260;BME280;22296;50.824;5.644;2023-02-28T07:06:11;102057.75;;;8.58;60.83
36260;BME280;22296;50.824;5.644;2023-02-28T07:08:38;102060.00;;;8.62;60.72
36260;BME280;22296;50.824;5.644;2023-02-28T07:11:06;102069.34;;;8.61;60.68
36260;BME280;22296;50.824;5.644;2023-02-28T07:13:33;102064.91;;;8.59;60.76
36260;BME280;22296;50.824;5.644;2023-02-28T07:16:02;102069.22;;;8.55;60.81
36260;BME280;22296;50.824;5.644;2023-02-28T07:18:30;102073.09;;;8.54;60.84
36260;BME280;22296;50.824;5.644;2023-02-28T07:20:57;102074.72;;;8.55;60.83
36260;BME280;22296;50.824;5.644;2023-02-28T07:23:24;102074.16;;;8.53;60.67
36260;BME280;22296;50.824;5.644;2023-02-28T07:25:51;102076.91;;;8.53;60.43
36260;BME280;22296;50.824;5.644;2023-02-28T07:28:18;102076.91;;;8.53;60.98
36260;BME280;22296;50.824;5.644;2023-02-28T07:30:45;102075.84;;;8.54;60.67
36260;BME280;22296;50.824;5.644;2023-02-28T07:33:12;102066.41;;;8.50;60.71
36260;BME280;22296;50.824;5.644;2023-02-28T07:35:39;102071.91;;;8.50;60.63
36260;BME280;22296;50.824;5.644;2023-02-28T07:38:05;102066.16;;;8.52;60.78
36260;BME280;22296;50.824;5.644;2023-02-28T07:40:34;102067.25;;;8.51;60.43
36260;BME280;22296;50.824;5.644;2023-02-28T07:43:02;102070.84;;;8.51;60.34
36260;BME280;22296;50.824;5.644;2023-02-28T07:45:30;102064.72;;;8.49;60.39
36260;BME280;22296;50.824;5.644;2023-02-28T07:47:58;102069.41;;;8.49;60.61
36260;BME280;22296;50.824;5.644;2023-02-28T07:50:26;102072.97;;;8.49;60.46
36260;BME280;22296;50.824;5.644;2023-02-28T07:52:55;102069.66;;;8.47;60.53
36260;BME280;22296;50.824;5.644;2023-02-28T07:55:22;102070.22;;;8.49;60.82
36260;BME280;22296;50.824;5.644;2023-02-28T07:57:49;102071.31;;;8.48;60.44
36260;BME280;22296;50.824;5.644;2023-02-28T08:00:16;102069.41;;;8.49;60.51
36260;BME280;22296;50.824;5.644;2023-02-28T08:02:43;102073.50;;;8.46;60.68
36260;BME280;22296;50.824;5.644;2023-02-28T08:05:10;102073.22;;;8.48;60.52
36260;BME280;22296;50.824;5.644;2023-02-28T08:07:36;102073.25;;;8.65;60.92
36260;BME280;22296;50.824;5.644;2023-02-28T08:10:03;102082.97;;;8.84;60.49
36260;BME280;22296;50.824;5.644;2023-02-28T08:12:32;102077.28;;;8.74;60.79
36260;BME280;22296;50.824;5.644;2023-02-28T08:14:59;102079.59;;;8.65;60.74
36260;BME280;22296;50.824;5.644;2023-02-28T08:17:26;102079.59;;;8.65;60.69
36260;BME280;22296;50.824;5.644;2023-02-28T08:19:53;102082.84;;;8.79;60.00
36260;BME280;22296;50.824;5.644;2023-02-28T08:22:20;102082.34;;;8.82;60.23
36260;BME280;22296;50.824;5.644;2023-02-28T08:24:46;102083.13;;;8.94;59.50
36260;BME280;22296;50.824;5.644;2023-02-28T08:27:13;102090.94;;;9.02;59.40
36260;BME280;22296;50.824;5.644;2023-02-28T08:29:40;102088.88;;;9.09;59.34
36260;BME280;22296;50.824;5.644;2023-02-28T08:32:07;102092.63;;;9.20;58.84
36260;BME280;22296;50.824;5.644;2023-02-28T08:34:49;102085.94;;;9.32;58.72
36260;BME280;22296;50.824;5.644;2023-02-28T08:37:15;102082.88;;;9.50;58.23
36260;BME280;22296;50.824;5.644;2023-02-28T08:39:42;102082.88;;;9.67;57.87
36260;BME280;22296;50.824;5.644;2023-02-28T08:42:09;102086.66;;;9.83;57.52
36260;BME280;22296;50.824;5.644;2023-02-28T08:44:35;102085.13;;;9.92;57.34
36260;BME280;22296;50.824;5.644;2023-02-28T08:47:02;102078.06;;;10.01;56.70
36260;BME280;22296;50.824;5.644;2023-02-28T08:49:29;102081.16;;;10.04;56.80
36260;BME280;22296;50.824;5.644;2023-02-28T08:51:56;102084.19;;;10.08;56.94
36260;BME280;22296;50.824;5.644;2023-02-28T08:54:24;102084.88;;;10.15;56.77
36260;BME280;22296;50.824;5.644;2023-02-28T08:56:51;102085.81;;;10.25;56.44
36260;BME280;22296;50.824;5.644;2023-02-28T08:59:18;102078.44;;;10.31;56.22
36260;BME280;22296;50.824;5.644;2023-02-28T09:01:45;102088.44;;;10.37;56.28
36260;BME280;22296;50.824;5.644;2023-02-28T09:04:11;102081.84;;;10.38;56.09
36260;BME280;22296;50.824;5.644;2023-02-28T09:06:43;102087.97;;;10.45;56.03
36260;BME280;22296;50.824;5.644;2023-02-28T09:09:10;102080.28;;;10.47;55.94
36260;BME280;22296;50.824;5.644;2023-02-28T09:11:37;102079.22;;;10.53;55.73
36260;BME280;22296;50.824;5.644;2023-02-28T09:14:04;102081.97;;;10.53;55.74
36260;BME280;22296;50.824;5.644;2023-02-28T09:16:32;102075.66;;;10.53;55.69
36260;BME280;22296;50.824;5.644;2023-02-28T09:19:00;102075.94;;;10.56;55.51
36260;BME280;22296;50.824;5.644;2023-02-28T09:21:27;102072.13;;;10.62;55.66
36260;BME280;22296;50.824;5.644;2023-02-28T09:23:55;102078.69;;;10.56;55.68
36260;BME280;22296;50.824;5.644;2023-02-28T09:26:24;102066.91;;;10.61;55.44
36260;BME280;22296;50.824;5.644;2023-02-28T09:28:58;102073.25;;;10.61;55.39
36260;BME280;22296;50.824;5.644;2023-02-28T09:31:27;102072.22;;;10.67;55.26
36260;BME280;22296;50.824;5.644;2023-02-28T09:33:56;102071.06;;;10.63;55.37
36260;BME280;22296;50.824;5.644;2023-02-28T09:36:25;102066.13;;;10.70;55.21
36260;BME280;22296;50.824;5.644;2023-02-28T09:39:09;102064.50;;;10.69;55.07
36260;BME280;22296;50.824;5.644;2023-02-28T09:41:42;102061.19;;;10.67;55.19
36260;BME280;22296;50.824;5.644;2023-02-28T09:44:36;102052.78;;;10.57;55.15
36260;BME280;22296;50.824;5.644;2023-02-28T09:49:44;102052.13;;;10.45;55.45
36260;BME280;22296;50.824;5.644;2023-02-28T09:52:18;102053.94;;;10.35;55.73
36260;BME280;22296;50.824;5.644;2023-02-28T09:54:46;102059.41;;;10.29;55.95
36260;BME280;22296;50.824;5.644;2023-02-28T10:05:27;102051.34;;;10.23;55.92
36260;BME280;22296;50.824;5.644;2023-02-28T10:13:13;102053.88;;;10.56;55.58
36260;BME280;22296;50.824;5.644;2023-02-28T10:15:42;102056.06;;;10.54;55.29
36260;BME280;22296;50.824;5.644;2023-02-28T10:18:15;102057.53;;;10.35;55.40
36260;BME280;22296;50.824;5.644;2023-02-28T10:20:45;102055.31;;;10.32;55.60
36260;BME280;22296;50.824;5.644;2023-02-28T10:23:24;102056.38;;;10.31;55.57
36260;BME280;22296;50.824;5.644;2023-02-28T10:26:00;102052.94;;;10.19;55.87
36260;BME280;22296;50.824;5.644;2023-02-28T10:28:29;102046.84;;;10.17;55.65
36260;BME280;22296;50.824;5.644;2023-02-28T10:30:58;102050.97;;;10.14;55.85
36260;BME280;22296;50.824;5.644;2023-02-28T10:33:33;102053.38;;;10.11;56.04
36260;BME280;22296;50.824;5.644;2023-02-28T10:36:01;102045.63;;;10.08;55.92
36260;BME280;22296;50.824;5.644;2023-02-28T10:38:35;102045.56;;;10.03;56.05
36260;BME280;22296;50.824;5.644;2023-02-28T10:41:13;102045.63;;;10.08;55.84
36260;BME280;22296;50.824;5.644;2023-02-28T10:43:43;102046.28;;;10.15;55.72
36260;BME280;22296;50.824;5.644;2023-02-28T10:46:15;102039.84;;;10.09;55.68
36260;BME280;22296;50.824;5.644;2023-02-28T10:49:12;102038.03;;;10.15;55.19
36260;BME280;22296;50.824;5.644;2023-02-28T10:51:40;102033.19;;;10.27;54.89
36260;BME280;22296;50.824;5.644;2023-02-28T10:54:19;102031.19;;;10.49;54.35
36260;BME280;22296;50.824;5.644;2023-02-28T10:59:41;102028.06;;;10.67;53.85
36260;BME280;22296;50.824;5.644;2023-02-28T11:02:32;102033.03;;;10.70;53.95
36260;BME280;22296;50.824;5.644;2023-02-28T11:05:00;102027.00;;;10.73;53.80
36260;BME280;22296;50.824;5.644;2023-02-28T11:07:27;102025.94;;;10.79;53.94
36260;BME280;22296;50.824;5.644;2023-02-28T11:10:28;102018.81;;;10.83;53.84
36260;BME280;22296;50.824;5.644;2023-02-28T11:12:57;102018.31;;;10.92;53.70
36260;BME280;22296;50.824;5.644;2023-02-28T11:15:29;102013.41;;;10.99;53.46
36260;BME280;22296;50.824;5.644;2023-02-28T11:20:32;102007.69;;;11.10;53.22
36260;BME280;22296;50.824;5.644;2023-02-28T11:23:02;102024.00;;;11.17;52.96
36260;BME280;22296;50.824;5.644;2023-02-28T11:25:30;102013.81;;;11.22;52.92
36260;BME280;22296;50.824;5.644;2023-02-28T11:28:03;102008.91;;;11.29;52.77
36260;BME280;22296;50.824;5.644;2023-02-28T11:30:37;102016.66;;;11.32;52.53
36260;BME280;22296;50.824;5.644;2023-02-28T11:33:32;102005.38;;;11.39;52.48
36260;BME280;22296;50.824;5.644;2023-02-28T11:36:09;102002.34;;;11.45;52.39
36260;BME280;22296;50.824;5.644;2023-02-28T11:38:37;102001.03;;;11.53;52.27
36260;BME280;22296;50.824;5.644;2023-02-28T11:43:59;101999.97;;;11.59;52.16
36260;BME280;22296;50.824;5.644;2023-02-28T11:47:04;102002.19;;;11.67;51.91
36260;BME280;22296;50.824;5.644;2023-02-28T12:05:24;101986.91;;;12.27;51.48
36260;BME280;22296;50.824;5.644;2023-02-28T12:10:38;101993.28;;;12.37;51.08
36260;BME280;22296;50.824;5.644;2023-02-28T12:24:05;101987.50;;;12.54;51.08
36260;BME280;22296;50.824;5.644;2023-02-28T12:26:40;101980.03;;;12.60;51.09
36260;BME280;22296;50.824;5.644;2023-02-28T12:31:56;101973.13;;;12.62;51.05
36260;BME280;22296;50.824;5.644;2023-02-28T12:34:30;101979.19;;;12.69;50.90
36260;BME280;22296;50.824;5.644;2023-02-28T12:37:01;101976.41;;;12.69;50.92
36260;BME280;22296;50.824;5.644;2023-02-28T12:39:34;101970.03;;;12.69;50.83
36260;BME280;22296;50.824;5.644;2023-02-28T12:42:28;101963.72;;;12.68;50.55
36260;BME280;22296;50.824;5.644;2023-02-28T12:45:02;101976.44;;;12.59;50.74
36260;BME280;22296;50.824;5.644;2023-02-28T12:47:29;101979.19;;;12.59;50.71
36260;BME280;22296;50.824;5.644;2023-02-28T12:49:59;101969.22;;;12.58;50.58
36260;BME280;22296;50.824;5.644;2023-02-28T12:52:40;101966.19;;;12.54;50.73
36260;BME280;22296;50.824;5.644;2023-02-28T12:55:28;101954.31;;;12.54;50.64
36260;BME280;22296;50.824;5.644;2023-02-28T13:09:53;101948.47;;;12.50;50.47
36260;BME280;22296;50.824;5.644;2023-02-28T13:12:21;101943.50;;;12.52;50.44
36260;BME280;22296;50.824;5.644;2023-02-28T13:14:50;101935.47;;;12.56;50.22
36260;BME280;22296;50.824;5.644;2023-02-28T13:17:20;101939.06;;;12.51;50.20
36260;BME280;22296;50.824;5.644;2023-02-28T13:24:59;101927.19;;;12.56;50.19
36260;BME280;22296;50.824;5.644;2023-02-28T13:27:40;101926.88;;;12.57;50.28
36260;BME280;22296;50.824;5.644;2023-02-28T13:38:41;101932.16;;;12.64;49.98
36260;BME280;22296;50.824;5.644;2023-02-28T13:51:55;101926.03;;;12.77;49.71
36260;BME280;22296;50.824;5.644;2023-02-28T13:54:39;101922.16;;;12.78;49.76
36260;BME280;22296;50.824;5.644;2023-02-28T14:05:32;101919.91;;;13.05;49.33
36260;BME280;22296;50.824;5.644;2023-02-28T14:08:08;101912.13;;;13.12;49.08
36260;BME280;22296;50.824;5.644;2023-02-28T14:10:49;101908.78;;;13.21;49.20
36260;BME280;22296;50.824;5.644;2023-02-28T14:13:42;101907.69;;;13.11;49.06
36260;BME280;22296;50.824;5.644;2023-02-28T14:16:24;101908.25;;;13.19;49.37
36260;BME280;22296;50.824;5.644;2023-02-28T14:19:00;101910.97;;;13.24;49.00
36260;BME280;22296;50.824;5.644;2023-02-28T14:21:33;101910.44;;;13.22;49.11
36260;BME280;22296;50.824;5.644;2023-02-28T14:38:25;101908.66;;;13.51;48.71
36260;BME280;22296;50.824;5.644;2023-02-28T14:40:54;101899.81;;;13.44;48.78
36260;BME280;22296;50.824;5.644;2023-02-28T14:43:24;101907.59;;;13.42;48.65
36260;BME280;22296;50.824;5.644;2023-02-28T14:45:55;101904.84;;;13.37;48.86
36260;BME280;22296;50.824;5.644;2023-02-28T14:48:23;101898.72;;;13.45;48.69
36260;BME280;22296;50.824;5.644;2023-02-28T14:50:55;101900.38;;;13.46;48.43
36260;BME280;22296;50.824;5.644;2023-02-28T14:53:26;101896.78;;;13.40;48.76
36260;BME280;22296;50.824;5.644;2023-02-28T14:55:54;101906.50;;;13.43;48.69
36260;BME280;22296;50.824;5.644;2023-02-28T14:58:32;101901.53;;;13.40;48.58
36260;BME280;22296;50.824;5.644;2023-02-28T15:01:02;101893.22;;;13.40;48.54
36260;BME280;22296;50.824;5.644;2023-02-28T15:03:30;101898.44;;;13.41;48.62
36260;BME280;22296;50.824;5.644;2023-02-28T15:06:00;101892.66;;;13.43;48.51
36260;BME280;22296;50.824;5.644;2023-02-28T15:08:28;101887.09;;;13.43;48.56
36260;BME280;22296;50.824;5.644;2023-02-28T15:10:59;101889.03;;;13.42;48.51
36260;BME280;22296;50.824;5.644;2023-02-28T15:13:42;101881.00;;;13.41;48.48
36260;BME280;22296;50.824;5.644;2023-02-28T15:16:19;101889.88;;;13.43;48.49
36260;BME280;22296;50.824;5.644;2023-02-28T15:18:53;101882.09;;;13.45;48.25
36260;BME280;22296;50.824;5.644;2023-02-28T15:21:24;101879.34;;;13.40;48.50
36260;BME280;22296;50.824;5.644;2023-02-28T15:23:58;101878.22;;;13.41;48.46
36260;BME280;22296;50.824;5.644;2023-02-28T15:26:31;101887.38;;;13.41;48.39
36260;BME280;22296;50.824;5.644;2023-02-28T15:29:01;101881.00;;;13.41;48.48
36260;BME280;22296;50.824;5.644;2023-02-28T15:31:33;101887.66;;;13.40;48.35
36260;BME280;22296;50.824;5.644;2023-02-28T15:34:28;101889.31;;;13.46;48.50
36260;BME280;22296;50.824;5.644;2023-02-28T15:40:14;101887.06;;;13.48;48.27
36260;BME280;22296;50.824;5.644;2023-02-28T15:42:43;101889.53;;;13.49;48.19
36260;BME280;22296;50.824;5.644;2023-02-28T15:45:37;101894.25;;;13.54;48.41
36260;BME280;22296;50.824;5.644;2023-02-28T15:53:37;101889.81;;;13.53;48.30
36260;BME280;22296;50.824;5.644;2023-02-28T15:56:21;101891.22;;;13.50;48.08
36260;BME280;22296;50.824;5.644;2023-02-28T15:58:48;101889.53;;;13.49;48.19
36260;BME280;22296;50.824;5.644;2023-02-28T16:01:23;101892.03;;;13.51;48.26